Terminal Aerodrome Forecast
Issued by NWS Cleveland, OH

Home | Current Version | Previous Version | Graphics & Text | Print | Product List | Glossary On
Versions: 1 2 3 4 5 6 7 8 9 10 11 12 13 14 15 16 17 18 19 20 21 22 23 24 25 26 27 28 29 30
804
FTUS41 KCLE 282332
TAFCLE
TAF
KCLE 282332Z 2900/3006 25005KT P6SM VCSH SCT050 BKN100
     FM290900 VRB02KT 6SM BR SCT250
     FM291300 20008KT P6SM VCSH BKN060 BKN120
     FM291800 20012KT P6SM BKN050 BKN120 PROB30 2923/3004 5SM -TSRA
      BR BKN035CB
     FM300500 25012KT P6SM BKN070 BKN120=

USA.gov is the U.S. government's official web portal to all federal, state and local government web resources and services.